createdAt,value
2022-08-25T00:00:47.741Z,22.40
2022-08-25T00:04:53.689Z,22.40
2022-08-25T00:09:00.043Z,22.30
2022-08-25T00:13:03.704Z,22.20
2022-08-25T00:17:07.852Z,22.20
2022-08-25T00:21:10.774Z,22.20
2022-08-25T00:25:15.050Z,22.20
2022-08-25T00:29:18.621Z,22.20
2022-08-25T00:33:21.460Z,22.10
2022-08-25T00:37:24.294Z,22.00
2022-08-25T00:41:28.847Z,22.10
2022-08-25T00:45:31.594Z,22.00
2022-08-25T00:49:38.345Z,21.90
2022-08-25T00:53:41.939Z,21.90
2022-08-25T00:57:48.705Z,21.70
2022-08-25T01:01:52.491Z,21.70
2022-08-25T01:05:56.442Z,21.60
2022-08-25T01:10:01.659Z,21.50
2022-08-25T01:14:07.062Z,21.40
2022-08-25T01:18:09.846Z,21.40
2022-08-25T01:22:14.149Z,21.40
2022-08-25T01:26:21.068Z,21.40
2022-08-25T01:30:34.250Z,21.30
2022-08-25T01:34:40.960Z,21.30
2022-08-25T01:38:45.073Z,21.20
2022-08-25T01:42:58.489Z,21.20
2022-08-25T01:47:01.388Z,21.30
2022-08-25T01:51:04.170Z,21.30
2022-08-25T01:55:09.170Z,21.30
2022-08-25T01:59:12.015Z,21.30
2022-08-25T02:03:18.595Z,21.30
2022-08-25T02:07:21.894Z,21.30
2022-08-25T02:11:26.390Z,21.20
2022-08-25T02:15:29.179Z,21.20
2022-08-25T02:19:32.109Z,21.10
2022-08-25T02:23:36.057Z,21.00
2022-08-25T02:27:40.182Z,21.00
2022-08-25T02:31:43.273Z,21.00
2022-08-25T02:35:46.079Z,21.00
2022-08-25T02:39:49.084Z,21.00
2022-08-25T02:43:53.974Z,21.00
2022-08-25T02:47:56.905Z,20.90
2022-08-25T02:52:00.505Z,20.90
2022-08-25T02:56:04.751Z,20.80
2022-08-25T03:00:11.621Z,20.70
2022-08-25T03:04:15.648Z,20.60
2022-08-25T03:08:18.642Z,20.50
2022-08-25T03:12:22.494Z,20.40
2022-08-25T03:16:27.858Z,20.30
2022-08-25T03:20:31.303Z,20.30
2022-08-25T03:24:34.236Z,20.10
2022-08-25T03:28:37.004Z,20.00
2022-08-25T03:32:41.285Z,20.00
2022-08-25T03:36:44.694Z,20.00
2022-08-25T03:40:47.499Z,20.00
2022-08-25T03:44:50.411Z,19.90
2022-08-25T03:48:54.918Z,19.80
2022-08-25T03:52:59.191Z,19.80
2022-08-25T03:57:01.980Z,19.70
2022-08-25T04:01:04.827Z,19.60
2022-08-25T04:05:10.589Z,19.60
2022-08-25T04:09:13.858Z,19.50
2022-08-25T04:13:16.618Z,19.40
2022-08-25T04:17:19.772Z,19.50
2022-08-25T04:21:25.141Z,19.60
2022-08-25T04:25:28.396Z,19.60
2022-08-25T04:29:31.196Z,19.60
2022-08-25T04:33:34.309Z,19.60
2022-08-25T04:37:38.469Z,19.50
2022-08-25T04:41:41.277Z,19.50
2022-08-25T04:45:44.165Z,19.40
2022-08-25T04:49:47.824Z,19.40
2022-08-25T04:53:52.774Z,19.30
2022-08-25T04:57:55.675Z,19.30
2022-08-25T05:02:02.026Z,19.30
2022-08-25T05:06:06.084Z,19.40
2022-08-25T05:10:10.594Z,19.40
2022-08-25T05:14:15.389Z,19.50
2022-08-25T05:18:19.734Z,19.50
2022-08-25T05:22:22.563Z,19.50
2022-08-25T05:26:30.034Z,19.60
2022-08-25T05:30:32.938Z,19.80
2022-08-25T05:34:36.973Z,21.10
2022-08-25T05:38:41.020Z,23.10
2022-08-25T05:42:45.120Z,25.10
2022-08-25T05:46:47.887Z,27.20
2022-08-25T05:50:53.649Z,27.80
2022-08-25T05:54:56.494Z,26.90
2022-08-25T05:59:00.642Z,26.00
2022-08-25T06:03:03.370Z,25.10
2022-08-25T06:07:06.169Z,24.60
2022-08-25T06:11:09.478Z,24.20
2022-08-25T06:15:16.184Z,24.30
2022-08-25T06:19:19.387Z,25.40
2022-08-25T06:23:22.125Z,26.00
2022-08-25T06:27:24.929Z,24.80
2022-08-25T06:31:29.118Z,24.10
2022-08-25T06:35:32.054Z,23.50
2022-08-25T06:39:37.398Z,23.20
2022-08-25T06:43:44.998Z,23.20
2022-08-25T06:47:52.865Z,23.20
2022-08-25T06:51:55.646Z,23.20
2022-08-25T06:56:01.293Z,23.30
2022-08-25T07:00:07.398Z,23.30
2022-08-25T07:04:13.198Z,23.30
2022-08-25T07:08:16.226Z,23.40
2022-08-25T07:12:19.017Z,23.40
2022-08-25T07:16:22.026Z,24.20
2022-08-25T07:20:26.799Z,25.10
2022-08-25T07:24:30.279Z,25.10
2022-08-25T07:28:33.106Z,24.90
2022-08-25T07:32:41.831Z,24.70
2022-08-25T07:36:46.852Z,24.70
2022-08-25T07:40:54.552Z,24.70
2022-08-25T07:44:59.780Z,24.70
2022-08-25T07:49:02.749Z,25.00
2022-08-25T07:53:07.430Z,25.20
2022-08-25T07:57:10.852Z,25.50
2022-08-25T08:01:16.054Z,25.50
2022-08-25T08:05:18.882Z,25.60
2022-08-25T08:09:22.947Z,26.20
2022-08-25T08:13:26.693Z,26.90
2022-08-25T08:17:29.591Z,27.20
2022-08-25T08:21:34.963Z,27.40
2022-08-25T08:25:39.172Z,27.20
2022-08-25T08:29:43.729Z,27.60
2022-08-25T08:33:46.715Z,27.70
2022-08-25T08:37:52.551Z,28.00
2022-08-25T08:42:22.313Z,28.30
2022-08-25T08:46:28.363Z,28.90
2022-08-25T08:50:36.922Z,29.30
2022-08-25T08:54:44.218Z,29.20
2022-08-25T08:58:53.120Z,28.80
2022-08-25T09:03:01.731Z,28.50
2022-08-25T09:07:13.818Z,28.50
2022-08-25T09:11:30.597Z,28.60
2022-08-25T09:16:02.268Z,28.60
2022-08-25T09:20:19.432Z,28.50
2022-08-25T09:24:38.458Z,28.70
2022-08-25T09:28:48.864Z,28.80
2022-08-25T09:33:03.802Z,29.10
2022-08-25T09:37:08.067Z,29.60
2022-08-25T09:41:11.304Z,30.10
2022-08-25T09:45:15.632Z,30.40
2022-08-25T09:49:21.310Z,30.50
2022-08-25T09:53:24.753Z,30.50
2022-08-25T09:57:36.429Z,30.20
2022-08-25T10:01:50.379Z,30.10
2022-08-25T10:06:05.591Z,30.40
2022-08-25T10:10:25.432Z,30.90
2022-08-25T10:14:35.088Z,30.80
2022-08-25T10:18:39.335Z,30.70
2022-08-25T10:22:44.755Z,31.30
2022-08-25T10:26:59.684Z,31.20
2022-08-25T10:31:10.219Z,30.60
2022-08-25T10:35:16.781Z,30.80
2022-08-25T10:39:34.204Z,31.10
2022-08-25T10:43:47.436Z,30.70
2022-08-25T10:48:03.062Z,30.40
2022-08-25T10:52:12.683Z,30.10
2022-08-25T10:56:21.152Z,30.20
2022-08-25T11:00:31.782Z,30.70
2022-08-25T11:04:42.170Z,30.30
2022-08-25T11:08:48.438Z,30.30
2022-08-25T11:12:56.387Z,30.30
2022-08-25T11:17:04.850Z,30.00
2022-08-25T11:21:13.773Z,30.00
2022-08-25T11:25:21.705Z,30.10
2022-08-25T11:29:32.704Z,30.40
2022-08-25T11:33:36.013Z,30.50
2022-08-25T11:37:56.951Z,30.60
2022-08-25T11:42:13.707Z,30.30
2022-08-25T11:46:29.866Z,30.10
2022-08-25T11:50:36.598Z,30.10
2022-08-25T11:54:44.914Z,30.30
2022-08-25T11:58:51.692Z,30.60
2022-08-25T12:02:59.637Z,30.90
2022-08-25T12:07:23.883Z,31.00
2022-08-25T12:11:54.593Z,30.40
2022-08-25T12:16:01.124Z,30.20
2022-08-25T12:20:07.637Z,30.10
2022-08-25T12:24:17.424Z,30.30
2022-08-25T12:28:35.090Z,30.50
2022-08-25T12:32:56.504Z,30.60
2022-08-25T12:37:06.229Z,30.50
2022-08-25T12:41:12.287Z,30.50
2022-08-25T12:45:38.481Z,30.70
2022-08-25T12:49:41.733Z,30.60
2022-08-25T12:53:50.993Z,30.70
2022-08-25T12:57:58.677Z,30.70
2022-08-25T13:02:37.520Z,30.50
2022-08-25T13:06:59.638Z,30.80
2022-08-25T13:11:11.900Z,30.70
2022-08-25T13:15:16.863Z,30.90
2022-08-25T13:19:21.585Z,31.10
2022-08-25T13:23:29.202Z,31.20
2022-08-25T13:27:36.585Z,31.40
2022-08-25T13:31:50.812Z,31.20
2022-08-25T13:36:16.948Z,31.00
2022-08-25T13:40:26.069Z,30.90
2022-08-25T13:44:33.346Z,31.00
2022-08-25T13:48:39.178Z,30.70
2022-08-25T13:52:42.965Z,30.60
2022-08-25T13:56:48.677Z,31.00
2022-08-25T14:01:19.983Z,31.30
2022-08-25T14:05:35.988Z,31.40
2022-08-25T14:09:42.109Z,31.50
2022-08-25T14:13:45.882Z,31.50
2022-08-25T14:18:03.053Z,31.60
2022-08-25T14:22:06.745Z,31.80
2022-08-25T14:26:10.282Z,32.50
2022-08-25T14:30:14.884Z,33.20
2022-08-25T14:34:20.908Z,33.60
2022-08-25T14:38:24.565Z,33.80
2022-08-25T14:42:27.420Z,34.20
2022-08-25T14:46:32.994Z,33.90
2022-08-25T14:50:41.094Z,34.10
2022-08-25T14:54:45.454Z,34.20
2022-08-25T14:58:51.536Z,34.50
2022-08-25T15:02:58.028Z,34.80
2022-08-25T15:07:22.958Z,35.00
2022-08-25T15:11:27.069Z,34.90
2022-08-25T15:15:32.877Z,35.20
2022-08-25T15:19:36.428Z,34.70
2022-08-25T15:23:41.314Z,34.30
2022-08-25T15:27:47.950Z,34.80
2022-08-25T15:31:51.320Z,35.00
2022-08-25T15:35:54.149Z,34.60
2022-08-25T15:39:58.527Z,34.50
2022-08-25T15:44:01.413Z,34.80
2022-08-25T15:48:06.847Z,35.30
2022-08-25T15:52:13.473Z,35.50
2022-08-25T15:56:26.398Z,35.10
2022-08-25T16:00:31.923Z,35.40
2022-08-25T16:04:35.198Z,35.60
2022-08-25T16:08:38.579Z,35.60
2022-08-25T16:12:42.888Z,35.50
2022-08-25T16:16:45.832Z,35.60
2022-08-25T16:20:49.317Z,35.30
2022-08-25T16:24:52.821Z,35.60
2022-08-25T16:28:57.290Z,35.30
2022-08-25T16:33:00.846Z,35.10
2022-08-25T16:37:03.979Z,34.90
2022-08-25T16:41:08.944Z,34.40
2022-08-25T16:45:13.735Z,33.90
2022-08-25T16:49:16.984Z,34.00
2022-08-25T16:53:37.648Z,33.70
2022-08-25T16:57:45.936Z,33.10
2022-08-25T17:01:52.588Z,32.60
2022-08-25T17:06:00.266Z,32.50
2022-08-25T17:10:12.470Z,32.30
2022-08-25T17:14:19.699Z,31.90
2022-08-25T17:18:24.018Z,31.70
2022-08-25T17:22:27.434Z,31.40
2022-08-25T17:26:31.036Z,31.10
2022-08-25T17:30:34.576Z,30.90
2022-08-25T17:34:39.107Z,30.70
2022-08-25T17:38:42.047Z,30.50
2022-08-25T17:42:44.905Z,30.30
2022-08-25T17:46:48.301Z,30.10
2022-08-25T17:50:52.466Z,29.90
2022-08-25T17:54:55.264Z,29.80
2022-08-25T17:59:01.982Z,29.60
2022-08-25T18:03:06.802Z,29.50
2022-08-25T18:07:11.072Z,29.30
2022-08-25T18:11:14.347Z,29.10
2022-08-25T18:15:17.166Z,29.00
2022-08-25T18:19:19.945Z,28.70
2022-08-25T18:23:24.278Z,28.60
2022-08-25T18:27:28.538Z,28.40
2022-08-25T18:31:32.219Z,28.20
2022-08-25T18:35:35.172Z,28.00
2022-08-25T18:39:56.980Z,27.90
2022-08-25T18:43:59.827Z,27.80
2022-08-25T18:48:02.774Z,27.60
2022-08-25T18:52:08.835Z,27.40
2022-08-25T18:56:13.164Z,27.20
2022-08-25T19:00:20.351Z,27.00
2022-08-25T19:04:23.241Z,26.80
2022-08-25T19:08:35.109Z,26.70
2022-08-25T19:12:40.489Z,26.70
2022-08-25T19:16:43.886Z,26.60
2022-08-25T19:20:47.004Z,26.50
2022-08-25T19:24:49.924Z,26.40
2022-08-25T19:28:54.912Z,26.20
2022-08-25T19:32:59.033Z,26.20
2022-08-25T19:37:04.504Z,26.10
2022-08-25T19:41:13.945Z,26.00
2022-08-25T19:45:21.570Z,25.90
2022-08-25T19:49:28.121Z,25.80
2022-08-25T19:53:34.905Z,25.60
2022-08-25T19:57:42.913Z,25.50
2022-08-25T20:01:49.618Z,25.40
2022-08-25T20:05:52.819Z,25.30
2022-08-25T20:09:57.517Z,25.20
2022-08-25T20:14:03.868Z,25.10
2022-08-25T20:18:08.469Z,24.90
2022-08-25T20:22:11.996Z,24.80
2022-08-25T20:26:21.718Z,24.80
2022-08-25T20:30:31.163Z,24.70
2022-08-25T20:34:36.048Z,24.60
2022-08-25T20:38:41.078Z,24.50
2022-08-25T20:42:45.918Z,24.40
2022-08-25T20:46:49.588Z,24.40
2022-08-25T20:50:57.833Z,24.30
2022-08-25T20:55:01.148Z,24.30
2022-08-25T20:59:04.725Z,24.30
2022-08-25T21:03:13.519Z,24.30
2022-08-25T21:07:18.088Z,24.30
2022-08-25T21:11:22.694Z,24.30
2022-08-25T21:15:26.146Z,24.20
2022-08-25T21:19:30.286Z,24.10
2022-08-25T21:23:35.091Z,24.00
2022-08-25T21:27:38.112Z,24.00
2022-08-25T21:31:41.507Z,23.90
2022-08-25T21:35:44.430Z,23.90
2022-08-25T21:39:51.568Z,23.80
2022-08-25T21:43:54.633Z,23.70
2022-08-25T21:47:57.417Z,23.60
2022-08-25T21:52:01.040Z,23.60
2022-08-25T21:56:08.653Z,23.50
2022-08-25T22:00:13.068Z,23.50
2022-08-25T22:04:16.272Z,23.50
2022-08-25T22:08:19.519Z,23.50
2022-08-25T22:12:25.017Z,23.50
2022-08-25T22:16:28.789Z,23.50
2022-08-25T22:20:32.551Z,23.40
2022-08-25T22:24:35.685Z,23.40
2022-08-25T22:28:39.974Z,23.30
2022-08-25T22:32:46.926Z,23.20
2022-08-25T22:36:49.973Z,23.10
2022-08-25T22:40:53.517Z,23.10
2022-08-25T22:44:57.924Z,23.10
2022-08-25T22:49:00.822Z,23.10
2022-08-25T22:53:03.998Z,23.00
2022-08-25T22:57:07.603Z,23.00
2022-08-25T23:01:16.292Z,23.00
2022-08-25T23:05:19.674Z,22.90
2022-08-25T23:09:22.721Z,22.90
2022-08-25T23:13:34.634Z,22.90
2022-08-25T23:17:38.966Z,22.80
2022-08-25T23:21:59.547Z,22.80
2022-08-25T23:26:02.537Z,22.80
2022-08-25T23:30:06.537Z,22.70
2022-08-25T23:34:13.268Z,22.70
2022-08-25T23:38:16.157Z,22.60
2022-08-25T23:42:20.268Z,22.60
2022-08-25T23:46:25.368Z,22.50
2022-08-25T23:50:29.689Z,22.50
2022-08-25T23:54:34.319Z,22.50
2022-08-25T23:58:37.063Z,22.50
